Time;durP1;ratioP1;P1;durP2;ratioP2;P2;SDS_P1;SDS_P2;PMS_P1;PMS_P2;Temp;Humidity;BMP_temperature;BMP_pressure;BME280_temperature;BME280_humidity;BME280_pressure;Samples;Min_cycle;Max_cycle;Signal;HPM_P1;HPM_P2
2023/09/01 00:01:14;;;;;;;;;2.00;2.00;;;;;22.48;89.69;100473.72;4880682;29;47158;-82
2023/09/01 00:03:40;;;;;;;;;3.50;2.25;;;;;22.29;90.07;100473.53;4883566;29;44758;-80
2023/09/01 00:06:11;;;;;;;;;1.00;1.00;;;;;22.51;89.63;100470.84;4882369;29;45256;-79
2023/09/01 00:08:37;;;;;;;;;3.00;2.33;;;;;22.37;88.92;100474.09;4899842;29;44844;-81
2023/09/01 00:11:02;;;;;;;;;2.00;1.00;;;;;22.39;89.01;100468.63;4899529;29;45090;-80
2023/09/01 00:13:27;;;;;;;;;1.00;1.00;;;;;22.35;88.60;100467.00;4899617;29;44858;-79
2023/09/01 00:15:53;;;;;;;;;2.00;2.00;;;;;22.39;88.32;100473.19;4882622;29;44786;-79
2023/09/01 00:18:18;;;;;;;;;4.00;2.00;;;;;22.39;88.87;100474.06;4883533;29;44937;-79
2023/09/01 00:20:44;;;;;;;;;1.00;0.75;;;;;22.30;88.30;100463.56;4898202;29;47417;-80
2023/09/01 00:23:09;;;;;;;;;1.75;1.75;;;;;22.33;88.55;100475.16;4882470;29;44759;-79
2023/09/01 00:25:34;;;;;;;;;2.25;2.25;;;;;22.33;88.43;100468.88;4882787;29;45043;-79
2023/09/01 00:27:59;;;;;;;;;1.67;1.33;;;;;22.31;88.48;100462.63;4900987;29;44934;-80
2023/09/01 00:30:28;;;;;;;;;2.00;2.00;;;;;22.43;88.65;100464.84;4899191;29;45637;-80
2023/09/01 00:32:54;;;;;;;;;0.33;0.33;;;;;22.29;88.51;100462.69;4883821;29;45167;-79
2023/09/01 00:35:19;;;;;;;;;2.00;2.00;;;;;22.31;88.50;100460.81;4899826;29;44948;-80
2023/09/01 00:37:44;;;;;;;;;1.33;1.00;;;;;22.32;89.08;100472.56;4898876;29;44836;-79
2023/09/01 00:40:10;;;;;;;;;2.00;2.00;;;;;22.32;89.45;100475.25;4899065;29;45033;-79
2023/09/01 00:42:40;;;;;;;;;1.75;1.00;;;;;22.36;89.00;100458.81;4897884;29;44870;-81
2023/09/01 00:45:06;;;;;;;;;2.50;1.00;;;;;22.24;89.01;100464.72;4881610;29;44775;-78
2023/09/01 00:47:31;;;;;;;;;1.00;1.00;;;;;22.29;88.87;100473.53;4898383;29;45347;-79
2023/09/01 00:49:57;;;;;;;;;2.00;2.00;;;;;22.35;89.19;100477.84;4897724;29;47156;-80
2023/09/01 00:52:23;;;;;;;;;2.33;2.33;;;;;22.41;88.61;100471.28;4899398;29;44790;-81
2023/09/01 00:54:52;;;;;;;;;1.00;1.00;;;;;22.37;88.38;100478.66;4887198;29;45643;-81
2023/09/01 00:57:17;;;;;;;;;1.00;1.00;;;;;22.38;88.48;100475.00;4867464;29;45430;-82
2023/09/01 00:59:42;;;;;;;;;1.00;1.00;;;;;22.36;88.36;100468.78;4882436;29;46939;-82
2023/09/01 01:02:08;;;;;;;;;1.00;1.00;;;;;22.38;88.87;100472.31;4895661;29;45474;-80
2023/09/01 01:04:33;;;;;;;;;2.00;2.00;;;;;22.34;88.64;100471.53;4880442;29;44876;-80
2023/09/01 01:07:36;;;;;;;;;1.25;1.00;;;;;22.54;88.65;100470.75;4883022;29;45470;-79
2023/09/01 01:10:19;;;;;;;;;1.00;1.00;;;;;22.60;88.48;100474.16;4882131;29;46647;-79
2023/09/01 01:12:50;;;;;;;;;1.00;1.00;;;;;22.61;88.66;100467.78;4882086;29;44889;-79
2023/09/01 01:15:19;;;;;;;;;1.00;1.00;;;;;22.49;88.64;100467.31;4882519;29;44954;-80
2023/09/01 01:17:49;;;;;;;;;1.00;1.00;;;;;22.50;88.21;100466.41;4882680;29;44822;-81
2023/09/01 01:20:24;;;;;;;;;1.00;1.00;;;;;22.40;88.39;100465.00;4891472;29;45473;-82
2023/09/01 01:23:09;;;;;;;;;2.50;2.50;;;;;22.65;87.75;100464.00;4885703;29;45405;-82
2023/09/01 01:25:36;;;;;;;;;1.00;1.00;;;;;22.44;88.32;100453.09;4866748;29;45418;-81
2023/09/01 01:28:08;;;;;;;;;2.00;2.00;;;;;22.63;88.23;100449.63;4885071;29;45461;-82
2023/09/01 01:30:34;;;;;;;;;0.25;0.25;;;;;22.41;87.83;100446.91;4885438;29;45854;-82
2023/09/01 01:33:00;;;;;;;;;3.00;1.25;;;;;22.36;87.91;100450.69;4866708;29;45362;-82
2023/09/01 01:35:45;;;;;;;;;2.00;2.00;;;;;22.55;87.92;100453.53;4867595;29;45542;-81
2023/09/01 01:38:16;;;;;;;;;1.00;1.00;;;;;22.35;88.26;100445.31;4883371;29;45365;-82
2023/09/01 01:40:45;;;;;;;;;2.00;2.00;;;;;22.45;88.08;100446.72;4884041;29;46404;-82
2023/09/01 01:43:11;;;;;;;;;1.50;1.50;;;;;22.39;87.73;100451.50;4884092;29;45417;-82
2023/09/01 01:45:42;;;;;;;;;0.75;0.75;;;;;22.50;87.82;100449.22;4884225;29;45444;-82
2023/09/01 01:48:07;;;;;;;;;1.00;1.00;;;;;22.39;87.33;100448.78;4884860;29;45394;-82
2023/09/01 01:50:33;;;;;;;;;3.50;1.25;;;;;22.36;87.70;100447.09;4884184;29;45528;-82
2023/09/01 01:52:59;;;;;;;;;1.00;1.00;;;;;22.35;88.05;100451.59;4867107;29;45532;-82
2023/09/01 01:55:24;;;;;;;;;2.75;2.75;;;;;22.31;87.41;100449.09;4867388;29;45410;-81
2023/09/01 01:57:50;;;;;;;;;2.00;2.00;;;;;22.24;87.93;100436.72;4866929;29;45421;-82
2023/09/01 02:00:15;;;;;;;;;4.00;2.75;;;;;22.26;87.51;100440.25;4880965;29;46883;-82
2023/09/01 02:02:42;;;;;;;;;1.00;1.00;;;;;22.29;87.49;100446.44;4866598;29;46319;-82
2023/09/01 02:05:09;;;;;;;;;2.00;2.00;;;;;22.35;87.33;100445.31;4867641;29;45425;-82
2023/09/01 02:07:36;;;;;;;;;3.00;3.00;;;;;22.33;87.39;100437.25;4883525;29;45456;-82
2023/09/01 02:10:07;;;;;;;;;1.00;1.00;;;;;22.23;86.71;100443.06;4883558;29;46112;-82
2023/09/01 02:12:36;;;;;;;;;1.25;1.25;;;;;22.24;87.23;100443.03;4866242;29;45482;-82
2023/09/01 02:15:04;;;;;;;;;1.25;1.25;;;;;22.15;87.18;100446.94;4866844;29;45415;-82
2023/09/01 02:17:37;;;;;;;;;2.00;1.25;;;;;22.24;86.80;100452.97;4851044;29;45419;-82
2023/09/01 02:20:16;;;;;;;;;2.50;2.50;;;;;22.20;86.68;100435.03;4850356;29;47314;-81
2023/09/01 02:22:48;;;;;;;;;0.50;0.50;;;;;22.13;86.56;100445.22;4852621;29;45362;-82
2023/09/01 02:25:17;;;;;;;;;2.00;2.00;;;;;22.11;86.80;100447.13;4884200;29;45500;-83
2023/09/01 02:27:42;;;;;;;;;2.00;2.00;;;;;22.06;86.79;100444.59;4866735;29;44868;-83
2023/09/01 02:30:10;;;;;;;;;1.75;1.75;;;;;22.09;87.08;100439.03;4866465;29;47195;-82
2023/09/01 02:32:37;;;;;;;;;0.25;0.25;;;;;22.09;87.08;100433.63;4881876;29;45559;-82
2023/09/01 02:35:06;;;;;;;;;1.50;1.50;;;;;22.05;86.88;100431.97;4883921;29;45228;-82
2023/09/01 02:37:32;;;;;;;;;1.25;1.25;;;;;22.04;86.35;100426.66;4851713;29;45401;-81
2023/09/01 02:39:57;;;;;;;;;0.00;0.00;;;;;21.99;86.95;100432.22;4865416;29;48349;-82
2023/09/01 02:42:23;;;;;;;;;1.00;1.00;;;;;21.94;86.71;100437.81;4883363;29;45411;-81
2023/09/01 02:44:49;;;;;;;;;3.00;2.00;;;;;21.91;86.54;100437.03;4866847;29;45532;-82
2023/09/01 02:47:14;;;;;;;;;1.00;1.00;;;;;21.93;86.57;100436.03;4866562;29;45498;-81
2023/09/01 02:49:40;;;;;;;;;1.00;1.00;;;;;21.92;86.55;100436.13;4865823;29;48954;-83
2023/09/01 02:52:43;;;;;;;;;2.25;1.00;;;;;22.12;86.53;100428.09;4881758;29;45475;-82
2023/09/01 02:55:14;;;;;;;;;3.00;1.50;;;;;21.90;86.76;100444.28;4881444;29;45419;-81
2023/09/01 02:57:39;;;;;;;;;1.25;1.25;;;;;21.90;86.52;100432.59;4865779;29;45962;-82
2023/09/01 03:00:14;;;;;;;;;1.00;1.00;;;;;22.00;86.68;100444.84;4866199;29;47666;-82
2023/09/01 03:02:42;;;;;;;;;1.00;1.00;;;;;22.02;86.86;100447.50;4865644;29;44872;-81
2023/09/01 03:05:08;;;;;;;;;1.75;1.75;;;;;21.90;86.53;100436.16;4884212;29;44818;-81
2023/09/01 03:07:34;;;;;;;;;0.00;0.00;;;;;21.84;86.71;100441.81;4882739;29;45424;-82
2023/09/01 03:09:59;;;;;;;;;1.75;1.75;;;;;21.80;87.04;100442.00;4865382;29;47311;-82
2023/09/01 03:12:25;;;;;;;;;2.00;2.00;;;;;21.84;86.71;100449.06;4882501;29;45718;-82
2023/09/01 03:14:51;;;;;;;;;1.00;1.00;;;;;21.83;86.73;100444.56;4882128;29;45555;-82
2023/09/01 03:17:16;;;;;;;;;2.25;1.00;;;;;21.77;86.63;100435.75;4881451;29;45360;-82
2023/09/01 03:19:42;;;;;;;;;0.00;0.00;;;;;21.86;86.05;100433.66;4865105;29;47205;-82
2023/09/01 03:22:07;;;;;;;;;0.50;0.50;;;;;21.84;86.61;100432.81;4865074;29;45360;-82
2023/09/01 03:24:33;;;;;;;;;1.00;1.00;;;;;21.82;86.32;100430.16;4882927;29;45301;-82
2023/09/01 03:27:45;;;;;;;;;2.25;1.25;;;;;22.08;86.22;100442.72;4865605;29;45431;-82
2023/09/01 03:30:11;;;;;;;;;1.50;1.50;;;;;21.85;86.72;100437.28;4865650;29;46244;-81
2023/09/01 03:32:37;;;;;;;;;1.25;0.75;;;;;21.81;86.59;100439.22;4865750;29;45482;-82
2023/09/01 03:35:04;;;;;;;;;2.00;2.00;;;;;21.85;86.67;100442.69;4865095;29;45515;-82
2023/09/01 03:37:30;;;;;;;;;1.00;1.00;;;;;21.83;86.64;100441.88;4865113;29;45582;-81
2023/09/01 03:39:56;;;;;;;;;1.00;1.00;;;;;21.80;86.92;100436.59;4881695;29;45414;-81
2023/09/01 03:42:21;;;;;;;;;1.00;1.00;;;;;21.79;86.66;100441.09;4885316;29;45409;-82
2023/09/01 03:44:46;;;;;;;;;0.33;0.33;;;;;21.80;86.75;100451.00;4868030;29;45806;-81
2023/09/01 03:47:13;;;;;;;;;1.00;1.00;;;;;21.87;86.78;100433.56;4885606;29;45523;-82
2023/09/01 03:49:38;;;;;;;;;5.00;2.00;;;;;21.77;87.01;100427.63;4883144;29;47179;-82
2023/09/01 03:52:04;;;;;;;;;3.00;2.00;;;;;21.83;86.83;100437.31;4884029;29;45461;-82
2023/09/01 03:54:29;;;;;;;;;1.25;1.25;;;;;21.76;86.54;100428.56;4869825;29;45434;-82
2023/09/01 03:56:55;;;;;;;;;2.50;2.50;;;;;21.77;86.80;100424.94;4885900;29;45479;-81
2023/09/01 03:59:20;;;;;;;;;1.25;1.00;;;;;21.80;86.61;100431.16;4869166;29;47074;-82
2023/09/01 04:01:46;;;;;;;;;2.00;2.00;;;;;21.80;86.74;100431.16;4868042;29;45372;-83
2023/09/01 04:04:13;;;;;;;;;2.25;2.25;;;;;21.81;86.93;100427.50;4868581;29;45510;-83
2023/09/01 04:06:39;;;;;;;;;1.25;1.25;;;;;21.74;86.67;100416.91;4885803;29;45464;-82
2023/09/01 04:09:05;;;;;;;;;3.00;1.00;;;;;21.69;87.21;100418.91;4885384;29;45448;-83
2023/09/01 04:11:31;;;;;;;;;1.25;1.25;;;;;21.75;86.91;100423.19;4884543;29;45309;-82
2023/09/01 04:13:56;;;;;;;;;1.00;1.00;;;;;21.77;86.83;100426.72;4868366;29;45319;-83
2023/09/01 04:16:22;;;;;;;;;1.00;1.00;;;;;21.78;87.18;100420.38;4883280;29;45311;-83
2023/09/01 04:18:48;;;;;;;;;0.75;0.75;;;;;21.72;86.92;100424.19;4883833;29;46066;-83
2023/09/01 04:21:13;;;;;;;;;1.75;1.75;;;;;21.69;87.30;100415.31;4866439;29;45358;-82
2023/09/01 04:23:40;;;;;;;;;3.00;1.00;;;;;21.67;87.31;100415.38;4884764;29;44906;-82
2023/09/01 04:26:06;;;;;;;;;2.75;2.75;;;;;21.65;87.86;100413.66;4868114;29;45636;-82
2023/09/01 04:28:33;;;;;;;;;1.00;1.00;;;;;21.71;87.53;100410.72;4852343;29;47309;-81
2023/09/01 04:31:02;;;;;;;;;1.00;1.00;;;;;21.75;88.01;100412.38;4867668;29;45423;-82
2023/09/01 04:33:28;;;;;;;;;1.75;1.75;;;;;21.59;88.10;100422.88;4867578;29;45487;-82
2023/09/01 04:36:03;;;;;;;;;2.00;2.00;;;;;21.77;87.70;100427.63;4886926;29;45436;-83
2023/09/01 04:38:29;;;;;;;;;1.75;1.75;;;;;21.53;87.90;100418.59;4885407;29;45443;-81
2023/09/01 04:40:56;;;;;;;;;2.25;2.00;;;;;21.66;88.27;100421.72;4883921;29;45586;-82
2023/09/01 04:43:25;;;;;;;;;2.00;2.00;;;;;21.63;88.08;100429.06;4867361;29;45468;-82
2023/09/01 04:45:51;;;;;;;;;3.00;2.00;;;;;21.62;88.24;100422.78;4882648;29;45417;-81
2023/09/01 04:48:16;;;;;;;;;2.50;2.50;;;;;21.59;88.23;100425.59;4866658;29;47194;-82
2023/09/01 04:50:41;;;;;;;;;2.75;2.75;;;;;21.49;88.59;100408.81;4866940;29;45610;-82
2023/09/01 04:53:07;;;;;;;;;2.00;2.00;;;;;21.57;88.51;100417.53;4868485;29;46183;-82
2023/09/01 04:55:33;;;;;;;;;1.50;1.50;;;;;21.61;88.31;100426.41;4866998;29;45618;-81
2023/09/01 04:57:58;;;;;;;;;1.50;1.50;;;;;21.67;88.38;100422.59;4883033;29;45340;-82
2023/09/01 05:00:24;;;;;;;;;1.25;1.25;;;;;21.66;88.60;100420.84;4880164;29;45468;-81
2023/09/01 05:02:50;;;;;;;;;2.00;2.00;;;;;21.65;88.44;100428.06;4865875;29;45842;-81
2023/09/01 05:05:15;;;;;;;;;3.75;2.00;;;;;21.68;88.56;100417.13;4848546;29;45565;-82
2023/09/01 05:07:41;;;;;;;;;2.00;2.00;;;;;21.67;88.75;100420.81;4865532;29;46182;-81
2023/09/01 05:10:08;;;;;;;;;1.75;1.75;;;;;21.66;88.58;100416.31;4847903;29;45381;-83
2023/09/01 05:12:34;;;;;;;;;1.00;1.00;;;;;21.67;88.91;100423.50;4865731;29;45514;-82
2023/09/01 05:15:00;;;;;;;;;2.25;2.00;;;;;21.70;88.89;100420.66;4848648;29;45324;-82
2023/09/01 05:17:25;;;;;;;;;2.00;2.00;;;;;21.70;88.91;100411.69;4864134;29;47373;-83
2023/09/01 05:19:51;;;;;;;;;2.00;2.00;;;;;21.73;89.49;100411.53;4864867;29;44722;-82
2023/09/01 05:22:16;;;;;;;;;2.00;2.00;;;;;21.70;89.14;100415.25;4866752;29;45406;-82
2023/09/01 05:24:42;;;;;;;;;0.00;0.00;;;;;21.75;89.34;100418.69;4851061;29;44929;-82
2023/09/01 05:27:07;;;;;;;;;3.00;3.00;;;;;21.76;89.36;100419.56;4865687;29;45350;-82
2023/09/01 05:29:33;;;;;;;;;1.75;1.75;;;;;21.78;89.23;100413.16;4848218;29;45321;-82
2023/09/01 05:31:58;;;;;;;;;1.00;1.00;;;;;21.78;89.24;100423.97;4850066;29;45806;-83
2023/09/01 05:34:23;;;;;;;;;3.00;1.00;;;;;21.80;89.48;100425.75;4865296;29;45448;-82
2023/09/01 05:36:50;;;;;;;;;1.00;1.00;;;;;21.82;89.60;100437.41;4849210;29;48423;-82
2023/09/01 05:39:15;;;;;;;;;1.75;1.75;;;;;21.83;89.40;100431.91;4850299;29;45581;-81
2023/09/01 05:41:40;;;;;;;;;1.00;1.00;;;;;21.85;89.43;100427.31;4849666;29;45544;-82
2023/09/01 05:44:06;;;;;;;;;2.00;1.00;;;;;21.86;89.22;100425.53;4864107;29;45475;-81
2023/09/01 05:46:31;;;;;;;;;0.75;0.25;;;;;21.89;89.41;100431.69;4866157;29;45460;-81
2023/09/01 05:48:57;;;;;;;;;1.00;1.00;;;;;21.90;89.34;100432.59;4865264;29;45380;-81
2023/09/01 05:51:22;;;;;;;;;3.00;3.00;;;;;21.93;89.68;100446.00;4865595;29;45453;-81
2023/09/01 05:53:50;;;;;;;;;1.75;1.00;;;;;22.07;90.16;100443.63;4866479;29;44821;-82
2023/09/01 05:56:16;;;;;;;;;1.00;1.00;;;;;21.96;89.65;100454.88;4865399;29;45580;-82
2023/09/01 05:58:41;;;;;;;;;2.00;2.00;;;;;21.96;89.57;100448.59;4863669;29;45358;-83
2023/09/01 06:01:07;;;;;;;;;2.00;2.00;;;;;21.96;89.64;100444.06;4867875;29;45151;-80
2023/09/01 06:03:32;;;;;;;;;1.50;1.50;;;;;21.97;89.72;100458.47;4866587;29;45365;-83
2023/09/01 06:05:58;;;;;;;;;1.25;1.00;;;;;22.00;90.26;100469.19;4866624;29;45338;-84
2023/09/01 06:08:23;;;;;;;;;1.00;1.00;;;;;22.00;89.63;100461.06;4848925;29;45387;-84
2023/09/01 06:10:48;;;;;;;;;3.00;2.75;;;;;21.98;90.18;100462.97;4849835;29;45453;-84
2023/09/01 06:13:14;;;;;;;;;2.75;2.75;;;;;21.90;89.93;100443.41;4849922;29;45047;-83
2023/09/01 06:15:39;;;;;;;;;1.25;1.25;;;;;21.98;90.22;100463.84;4866127;29;45085;-84
2023/09/01 06:18:05;;;;;;;;;1.00;1.00;;;;;22.04;90.02;100469.97;4867312;29;44933;-83
2023/09/01 06:20:30;;;;;;;;;2.00;2.00;;;;;22.09;89.95;100481.50;4850032;29;45549;-82
2023/09/01 06:22:57;;;;;;;;;1.25;1.25;;;;;22.23;90.04;100473.72;4851539;29;45613;-83
2023/09/01 06:25:22;;;;;;;;;0.25;0.25;;;;;22.12;89.94;100468.72;4847986;29;47255;-82
2023/09/01 06:27:49;;;;;;;;;2.50;2.00;;;;;22.24;89.94;100474.63;4848097;29;45450;-82
2023/09/01 06:33:36;;;;;;;;;0.75;0.75;;;;;22.50;89.19;100471.81;4866473;29;45387;-82
2023/09/01 06:36:04;;;;;;;;;2.50;2.00;;;;;22.60;88.61;100466.00;4863803;29;47044;-82
2023/09/01 06:38:29;;;;;;;;;4.25;3.00;;;;;22.53;88.35;100471.69;4869884;29;45359;-83
2023/09/01 06:40:57;;;;;;;;;2.00;2.00;;;;;22.73;87.63;100473.59;4864560;29;45383;-83
2023/09/01 06:43:23;;;;;;;;;2.50;2.50;;;;;22.60;87.52;100477.72;4852952;29;45594;-82
2023/09/01 06:45:48;;;;;;;;;1.00;1.00;;;;;22.63;87.04;100471.31;4857822;29;47137;-82
2023/09/01 06:48:14;;;;;;;;;0.75;0.75;;;;;22.66;87.41;100477.50;4858084;29;44776;-81
2023/09/01 06:50:40;;;;;;;;;2.00;2.00;;;;;22.67;87.21;100473.84;4857901;29;44858;-82
2023/09/01 06:53:06;;;;;;;;;2.00;2.00;;;;;22.72;86.84;100477.25;4875414;29;44957;-81
2023/09/01 06:55:33;;;;;;;;;2.00;2.00;;;;;22.86;87.30;100476.66;4873187;29;46929;-82
2023/09/01 06:58:03;;;;;;;;;2.75;1.00;;;;;22.88;86.89;100482.03;4876757;29;44768;-82
2023/09/01 07:00:34;;;;;;;;;0.50;0.50;;;;;22.97;86.92;100481.69;4885842;29;44868;-82
2023/09/01 07:03:00;;;;;;;;;1.00;1.00;;;;;22.76;87.04;100480.72;4919441;28;45021;-81
2023/09/01 07:05:25;;;;;;;;;2.50;2.50;;;;;22.79;87.62;100480.59;4892577;28;47053;-81
2023/09/01 07:07:57;;;;;;;;;1.25;1.00;;;;;22.75;87.77;100482.53;4892974;28;45204;-81
2023/09/01 07:10:23;;;;;;;;;1.00;1.00;;;;;22.76;88.06;100483.41;4905934;28;44883;-81
2023/09/01 07:12:49;;;;;;;;;1.00;1.00;;;;;22.77;88.24;100479.78;4892567;28;45391;-81
2023/09/01 07:15:16;;;;;;;;;0.00;0.00;;;;;22.72;88.42;100479.06;4893275;28;47724;-81
2023/09/01 07:17:41;;;;;;;;;3.00;1.50;;;;;22.73;89.45;100479.00;4898829;28;44802;-82
2023/09/01 07:20:11;;;;;;;;;1.00;1.00;;;;;22.84;89.37;100491.25;4915759;28;45058;-80
2023/09/01 07:22:37;;;;;;;;;1.25;0.00;;;;;22.70;89.98;100491.81;4889847;28;45033;-82
2023/09/01 07:25:04;;;;;;;;;0.50;0.50;;;;;22.74;90.24;100488.94;4879118;29;45639;-84
2023/09/01 07:30:13;;;;;;;;;1.00;1.00;;;;;22.61;90.43;100463.25;5366849;23;46876;-81
2023/09/01 07:45:39;;;;;;;;;0.25;0.25;;;;;22.76;91.50;100462.63;4907598;28;45338;-83
2023/09/01 07:48:06;;;;;;;;;2.00;2.00;;;;;22.84;91.95;100481.28;4892646;29;44945;-83
2023/09/01 07:50:32;;;;;;;;;1.50;1.00;;;;;22.93;92.28;100499.91;4915554;29;45470;-82
2023/09/01 07:52:59;;;;;;;;;1.50;1.50;;;;;22.99;91.52;100476.19;4956200;23;44960;-83
2023/09/01 07:55:28;;;;;;;;;0.00;0.00;;;;;23.24;91.39;100479.66;4875486;29;46929;-80
2023/09/01 08:29:47;;;;;;;;;;;;;;;;;;;;;
2023/09/01 08:32:11;;;;;;;;;3.50;1.50;;;;;24.04;84.63;100469.84;4857008;29;44882;-84
2023/09/01 08:34:40;;;;;;;;;1.25;1.25;;;;;24.30;84.80;100504.84;4839049;29;44978;-87
2023/09/01 08:37:05;;;;;;;;;0.00;0.00;;;;;24.34;84.80;100500.16;4851532;29;45828;-85
2023/09/01 08:39:34;;;;;;;;;2.25;1.25;;;;;24.40;84.02;100455.47;4836898;29;45230;-85
2023/09/01 08:42:02;;;;;;;;;1.50;1.50;;;;;24.73;83.87;100504.66;4848606;29;45029;-85
2023/09/01 08:44:39;;;;;;;;;2.50;1.00;;;;;24.52;83.19;100466.69;4850453;29;44977;-86
2023/09/01 08:47:22;;;;;;;;;0.25;0.00;;;;;24.74;82.76;100469.22;4852911;29;45358;-84
2023/09/01 08:49:50;;;;;;;;;1.00;1.00;;;;;24.83;83.18;100462.44;4836408;29;45033;-83
2023/09/01 08:52:22;;;;;;;;;2.50;2.00;;;;;24.83;81.34;100472.44;4855995;29;44840;-84
2023/09/01 08:55:20;;;;;;;;;;;;;;;;;;;;;
2023/09/01 08:58:06;;;;;;;;;1.50;1.50;;;;;25.31;80.73;100490.03;4839687;29;74512;-86
2023/09/01 09:00:35;;;;;;;;;3.00;1.25;;;;;25.32;80.10;100479.03;4845054;29;44808;-84
2023/09/01 09:03:21;;;;;;;;;2.00;1.00;;;;;25.74;79.47;100507.72;4818343;29;44821;-86
2023/09/01 09:05:56;;;;;;;;;2.00;2.00;;;;;25.67;79.00;100468.16;4836479;29;45504;-88
2023/09/01 09:09:03;;;;;;;;;2.00;1.00;;;;;26.12;77.99;100507.53;4863208;29;47213;-85
2023/09/01 09:12:29;;;;;;;;;3.50;2.00;;;;;26.24;77.06;100514.16;4922795;28;44780;-84
2023/09/01 09:19:09;;;;;;;;;2.75;2.75;;;;;26.35;76.19;100494.47;4899331;28;44936;-86
2023/09/01 09:21:41;;;;;;;;;1.00;1.00;;;;;26.33;74.36;100510.03;4880026;28;46792;-85
2023/09/01 09:27:35;;;;;;;;;3.50;3.25;;;;;26.54;73.04;100503.41;4879946;28;45343;-86
2023/09/01 09:38:04;;;;;;;;;1.25;1.25;;;;;26.46;72.04;100489.31;4973249;23;45094;-82
2023/09/01 09:40:55;;;;;;;;;1.00;1.00;;;;;26.49;71.87;100513.66;4904377;28;44928;-84
2023/09/01 09:43:41;;;;;;;;;3.00;3.00;;;;;26.65;71.56;100507.41;4910378;28;45672;-83
2023/09/01 09:46:07;;;;;;;;;3.75;2.00;;;;;26.58;71.77;100536.84;4897979;29;44804;-87
2023/09/01 09:48:35;;;;;;;;;2.00;2.00;;;;;26.80;70.75;100514.69;4904388;28;45148;-86
2023/09/01 09:51:07;;;;;;;;;4.00;2.00;;;;;27.05;70.99;100521.47;4916250;28;44948;-83
2023/09/01 09:58:51;;;;;;;;;1.50;1.50;;;;;27.38;68.18;100498.66;4931925;28;45074;-82
2023/09/01 10:09:12;;;;;;;;;2.00;2.00;;;;;27.80;64.58;100533.41;5088630;23;45443;-84
2023/09/01 10:11:40;;;;;;;;;1.00;1.00;;;;;27.58;65.13;100513.84;4930393;28;44906;-85
2023/09/01 10:22:45;;;;;;;;;3.25;1.00;;;;;27.62;63.94;100502.63;5681917;23;46419;-87
2023/09/01 10:25:20;;;;;;;;;2.00;2.00;;;;;27.78;62.67;100532.63;4927164;23;45286;-87
2023/09/01 10:28:05;;;;;;;;;1.00;1.00;;;;;27.51;62.23;100491.44;4894867;29;45366;-85
2023/09/01 10:30:33;;;;;;;;;1.50;1.50;;;;;27.37;62.94;100500.50;4976944;23;46296;-85
2023/09/01 10:33:28;;;;;;;;;2.00;2.00;;;;;27.50;64.13;100508.81;4899863;29;44888;-82
2023/09/01 10:36:20;;;;;;;;;0.00;0.00;;;;;27.49;63.20;100512.50;4913629;28;46999;-85
2023/09/01 10:38:45;;;;;;;;;2.00;2.00;;;;;27.49;62.29;100513.41;4907619;29;45253;-84
2023/09/01 10:45:22;;;;;;;;;1.00;1.00;;;;;28.16;62.16;100545.81;4897135;29;44870;-83
2023/09/01 10:47:52;;;;;;;;;2.00;2.00;;;;;28.10;62.73;100525.19;4910629;29;45562;-82
2023/09/01 10:50:42;;;;;;;;;1.25;1.25;;;;;28.50;61.13;100533.63;4919974;29;44884;-83
2023/09/01 10:53:31;;;;;;;;;1.00;1.00;;;;;28.70;59.98;100539.66;4925305;28;44798;-82
2023/09/01 10:56:31;;;;;;;;;1.50;1.00;;;;;28.62;59.95;100539.28;4905200;28;44844;-82
2023/09/01 11:01:50;;;;;;;;;2.00;2.00;;;;;28.48;59.51;100515.50;5509432;23;46064;-83
2023/09/01 11:04:28;;;;;;;;;1.50;1.50;;;;;28.46;60.25;100534.78;4893523;29;44930;-84
2023/09/01 11:07:00;;;;;;;;;1.00;0.00;;;;;28.37;60.48;100529.88;4910531;29;44938;-84
2023/09/01 11:09:35;;;;;;;;;2.75;2.00;;;;;28.27;58.91;100534.19;4910486;29;45604;-84
2023/09/01 11:12:02;;;;;;;;;0.50;0.50;;;;;27.93;60.44;100536.28;4894361;29;44726;-85
2023/09/01 11:14:27;;;;;;;;;1.00;1.00;;;;;27.96;60.66;100536.09;4910299;29;44787;-83
2023/09/01 11:16:57;;;;;;;;;1.25;1.25;;;;;28.17;60.58;100524.81;4884688;29;44899;-83
2023/09/01 11:19:50;;;;;;;;;2.00;2.00;;;;;28.44;60.13;100544.94;4894275;28;46684;-84
2023/09/01 11:27:39;;;;;;;;;;;;;;;;;;;;;
2023/09/01 11:30:15;;;;;;;;;2.00;0.50;;;;;28.24;60.00;100564.47;4939347;28;74496;-86
2023/09/01 11:32:52;;;;;;;;;0.75;0.75;;;;;28.28;59.66;100523.16;4925058;28;45236;-90
2023/09/01 11:35:41;;;;;;;;;2.50;1.25;;;;;28.53;60.53;100527.94;4949018;28;44757;-86
2023/09/01 11:38:17;;;;;;;;;1.00;1.00;;;;;28.89;59.70;100537.50;4937316;28;44919;-87
2023/09/01 11:40:52;;;;;;;;;0.25;0.25;;;;;28.96;59.27;100507.84;4932639;28;45522;-87
2023/09/01 11:43:59;;;;;;;;;0.75;0.75;;;;;29.29;57.96;100548.56;4953461;28;44835;-89
2023/09/01 11:47:10;;;;;;;;;;;;;;;;;;;;;
2023/09/01 11:49:49;;;;;;;;;0.50;0.50;;;;;29.29;57.58;100518.44;4955820;28;65126;-86
2023/09/01 11:53:12;;;;;;;;;1.75;1.75;;;;;29.36;57.00;100509.78;4945972;28;45033;-89
2023/09/01 12:00:01;;;;;;;;;0.25;0.25;;;;;29.64;56.81;100514.25;4838841;29;45386;-89
2023/09/01 12:05:51;;;;;;;;;2.75;1.00;;;;;29.35;56.63;100535.41;4826527;29;45393;-87
2023/09/01 12:26:51;;;;;;;;;0.25;0.25;;;;;27.98;58.17;100536.91;5054623;23;46367;-87
2023/09/01 12:29:48;;;;;;;;;2.50;1.25;;;;;28.21;58.21;100581.06;4897534;29;45284;-87
2023/09/01 12:32:22;;;;;;;;;2.00;2.00;;;;;27.81;58.65;100539.75;4912933;28;45537;-88
2023/09/01 12:34:55;;;;;;;;;2.50;2.50;;;;;27.83;59.73;100584.25;4911060;28;44875;-87
2023/09/01 12:50:54;;;;;;;;;1.00;1.00;;;;;27.96;59.07;100555.25;4913770;28;45497;-89
2023/09/01 12:53:23;;;;;;;;;1.00;1.00;;;;;27.88;59.43;100563.91;4911785;28;45605;-88
2023/09/01 12:56:09;;;;;;;;;0.60;0.60;;;;;27.69;58.83;100566.84;4913354;28;44935;-88
2023/09/01 12:58:54;;;;;;;;;1.00;1.00;;;;;27.58;59.63;100576.66;4892308;29;44814;-87
2023/09/01 13:01:32;;;;;;;;;0.50;0.50;;;;;27.43;60.35;100564.78;4893060;28;45292;-87
2023/09/01 13:03:57;;;;;;;;;2.00;1.00;;;;;27.21;60.43;100568.75;4892499;28;45918;-87
2023/09/01 13:06:30;;;;;;;;;0.25;0.25;;;;;27.33;61.17;100550.81;4887221;29;44995;-87
2023/09/01 13:08:56;;;;;;;;;0.50;0.50;;;;;27.60;60.96;100585.66;4893985;29;44877;-88
2023/09/01 13:22:26;;;;;;;;;1.25;1.25;;;;;27.58;60.32;100596.66;4912482;28;46121;-85
2023/09/01 13:25:04;;;;;;;;;1.00;1.00;;;;;27.01;61.10;100560.84;4861418;29;45090;-86
2023/09/01 13:27:51;;;;;;;;;1.60;0.20;;;;;26.83;61.57;100569.09;5008933;23;45383;-90
2023/09/01 13:30:21;;;;;;;;;1.00;1.00;;;;;26.88;77.10;100607.91;5189496;23;45111;-86
2023/09/01 13:32:58;;;;;;;;;2.00;2.00;;;;;26.57;75.42;100599.66;4924724;28;44884;-86
2023/09/01 14:13:45;;;;;;;;;1.00;1.00;;;;;30.65;56.89;100566.56;4933267;26;45224;-86
2023/09/01 14:16:20;;;;;;;;;1.00;1.00;;;;;32.59;53.97;100541.63;4939367;28;45483;-87
2023/09/01 14:18:56;;;;;;;;;1.00;1.00;;;;;33.79;48.66;100547.25;4916666;28;44981;-89
2023/09/01 14:21:22;;;;;;;;;1.50;1.50;;;;;34.38;48.84;100554.94;4929724;28;45270;-87
2023/09/01 14:23:58;;;;;;;;;1.50;0.00;;;;;35.36;46.83;100544.25;4894214;29;46806;-89
2023/09/01 14:26:25;;;;;;;;;1.25;0.25;;;;;34.95;47.53;100524.09;4897599;29;44789;-89
2023/09/01 14:29:05;;;;;;;;;0.75;0.75;;;;;36.58;47.73;100519.63;4895832;29;45250;-88
2023/09/01 14:31:43;;;;;;;;;0.00;0.00;;;;;38.59;44.11;100543.31;4910929;29;44896;-85
2023/09/01 14:34:16;;;;;;;;;0.00;0.00;;;;;39.82;41.73;100516.91;4912319;29;45423;-86
2023/09/01 14:36:55;;;;;;;;;0.00;0.00;;;;;41.20;40.48;100525.09;4908607;28;44961;-87
2023/09/01 14:39:20;;;;;;;;;0.25;0.25;;;;;41.23;39.84;100516.34;4894127;28;44979;-86
2023/09/01 14:47:04;;;;;;;;;0.25;0.00;;;;;36.91;39.61;100547.81;4930283;23;44872;-86
2023/09/01 14:49:29;;;;;;;;;0.00;0.00;;;;;35.46;38.16;100545.13;4862896;29;44768;-84
2023/09/01 14:51:56;;;;;;;;;0.00;0.00;;;;;34.12;41.50;100514.94;4891188;29;44806;-86
2023/09/01 14:59:35;;;;;;;;;1.00;1.00;;;;;32.62;44.32;100538.63;4935933;23;44996;-87
2023/09/01 15:02:04;;;;;;;;;0.00;0.00;;;;;32.00;44.82;100522.53;4918031;28;45555;-86
2023/09/01 15:04:31;;;;;;;;;0.00;0.00;;;;;31.65;45.73;100529.78;4916501;28;45385;-87